Seward, AK

12:09 AM AKDT on September 01, 2015 (GMT -0800)
Seward | | Change Station
CLOSE
Current Station
Airport
Location: Seward,
Elevation: 20 ft
Nearby Weather Stations

Elev 20 ft 60.13 °N, 149.42 °W | Updated 16 minutes ago

Clear
Clear
55 °F
Feels Like 55 °F
N
22
Wind Variable Wind from NNW
Gusts 32 mph

Today
High -- | Low -- °F
--% Chance of Precip.
Yesterday
High -- | Low -- °F
Precip. -- in
6:52 AM 9:01 PM
Waning Gibbous, 90% visible
Pressure 29.78 in
Visibility 10.0 miles
Clouds Clear
Dew Point 24 °F
Humidity 30%
Rainfall 0.00 in
Snow Depth Not available.
UV 0 out of 12
Pollen Not available.
Air Quality Not available.
Flu Activity Not available.
METAR PAWD 010753Z AUTO 33019G28KT 10SM CLR 13/M04 A2978 RMK AO2 PK WND 33030/0731 SLP083 T01281044 TSNO
Pressure 29.78 in
Visibility 10.0 miles
Clouds Clear
Dew Point 24 °F
Humidity 30%
Rainfall 0.00 in
Snow Depth Not available.
UV 0 out of 12
Pollen Not available.
Air Quality Not available.
Flu Activity Not available.
METAR PAWD 010753Z AUTO 33019G28KT 10SM CLR 13/M04 A2978 RMK AO2 PK WND 33030/0731 SLP083 T01281044 TSNO

10-Day Weather Forecast

×

Almanac

Astronomy

Sep. 01, 2015 Rise Set
Actual Time
Civil Twilight
Nautical Twilight
Astronomical Twilight
Moon
Length of Visible Light
Length of Day
Tomorrow will be .
, % of the Moon is Illuminated

Today's Extremes

State Highs State Lows

Community

WunderPhotos

Upload Photos

1,851,490 photos uploaded!

WunderBlogs® & News

Nearby

Air Quality

  Air Quality AQ Index Pollutant
Not available.

Snow Depth

Station Depth Elevation

Earthquake Activity

City Distance Mag. Time & Date
Minimum magnitude displayed is 2.5.

Coastal Water Temperatures

Place Temperature

Stations

Nearby Weather Stations

Station Location Temp. Windchill Dew Point Humidity Wind Precip. Elev Updated Type